Time;durP1;ratioP1;P1;durP2;ratioP2;P2;SDS_P1;SDS_P2;PMS_P1;PMS_P2;Temp;Humidity;BMP_temperature;BMP_pressure;BME280_temperature;BME280_humidity;BME280_pressure;Samples;Min_cycle;Max_cycle;Signal;HPM_P1;HPM_P2
2024/01/11 00:02:17;;;;;;;59.80;20.58;;;;;;;-6.86;89.97;102382.63;5180883;28;20056;-73
2024/01/11 00:04:48;;;;;;;64.57;21.67;;;;;;;-6.83;89.31;102393.88;5179310;28;20569;-72
2024/01/11 00:07:18;;;;;;;59.88;19.75;;;;;;;-6.83;88.13;102398.06;5184427;28;20033;-74
2024/01/11 00:09:48;;;;;;;60.40;20.02;;;;;;;-6.70;89.40;102401.50;5182176;28;20021;-74
2024/01/11 00:12:18;;;;;;;60.97;20.20;;;;;;;-6.84;87.89;102406.47;5183308;28;20500;-74
2024/01/11 00:14:49;;;;;;;56.30;20.02;;;;;;;-6.71;88.08;102397.19;5205841;28;20033;-74
2024/01/11 00:17:19;;;;;;;56.67;19.98;;;;;;;-6.79;88.28;102388.19;5182593;28;20096;-72
2024/01/11 00:19:50;;;;;;;54.17;19.85;;;;;;;-6.87;89.32;102391.94;5183544;28;20068;-73
2024/01/11 00:22:20;;;;;;;57.85;18.92;;;;;;;-6.88;89.42;102387.66;5179748;28;20030;-72
2024/01/11 00:24:51;;;;;;;55.67;18.95;;;;;;;-6.75;90.19;102394.34;5182630;28;20029;-73
2024/01/11 00:27:21;;;;;;;51.97;19.15;;;;;;;-6.69;89.75;102392.19;5186108;28;20112;-72
2024/01/11 00:29:53;;;;;;;54.08;19.48;;;;;;;-6.83;88.17;102381.19;5181962;28;20218;-72
2024/01/11 00:32:23;;;;;;;52.60;18.33;;;;;;;-6.89;89.19;102375.72;5186558;28;20033;-73
2024/01/11 00:34:53;;;;;;;63.78;19.63;;;;;;;-6.96;88.90;102370.16;5182989;28;20026;-72
2024/01/11 00:37:25;;;;;;;48.47;18.02;;;;;;;-6.82;89.92;102356.63;5184566;28;20391;-73
2024/01/11 00:39:55;;;;;;;52.80;18.35;;;;;;;-6.95;89.36;102357.53;5182488;28;20528;-74
2024/01/11 00:42:25;;;;;;;51.13;18.38;;;;;;;-7.10;89.37;102366.75;5184263;28;20021;-73
2024/01/11 00:44:55;;;;;;;51.08;18.17;;;;;;;-7.10;89.46;102356.59;5182508;28;20398;-73
2024/01/11 00:47:26;;;;;;;55.20;18.52;;;;;;;-7.04;90.69;102364.59;5185526;28;20033;-73
2024/01/11 00:49:56;;;;;;;49.53;17.65;;;;;;;-6.84;90.58;102360.75;5181818;28;20075;-73
2024/01/11 00:52:26;;;;;;;53.45;18.20;;;;;;;-6.73;90.41;102367.38;5182189;28;20025;-73
2024/01/11 00:54:57;;;;;;;51.83;18.77;;;;;;;-6.83;88.01;102378.63;5180380;28;20068;-73
2024/01/11 00:57:27;;;;;;;46.38;16.92;;;;;;;-6.82;88.67;102374.41;5179574;28;20291;-74
2024/01/11 00:59:57;;;;;;;47.65;16.67;;;;;;;-6.89;87.92;102375.72;5182693;28;20487;-73
2024/01/11 01:02:27;;;;;;;49.40;17.67;;;;;;;-6.82;88.69;102372.78;5187555;28;20032;-73
2024/01/11 01:04:58;;;;;;;51.35;17.85;;;;;;;-7.01;88.48;102374.94;5185964;28;20213;-73
2024/01/11 01:07:28;;;;;;;52.30;18.08;;;;;;;-7.08;88.88;102370.25;5185517;28;20043;-73
2024/01/11 01:09:58;;;;;;;51.33;17.20;;;;;;;-7.05;89.71;102377.19;5184273;28;20367;-74
2024/01/11 01:12:29;;;;;;;51.55;17.60;;;;;;;-6.87;89.48;102360.56;5186681;28;20064;-74
2024/01/11 01:14:59;;;;;;;50.72;17.23;;;;;;;-7.01;88.40;102357.19;5187551;28;20033;-74
2024/01/11 01:17:29;;;;;;;54.03;17.13;;;;;;;-7.07;89.49;102355.91;5184818;28;20498;-74
2024/01/11 01:19:59;;;;;;;50.17;17.42;;;;;;;-7.08;89.53;102356.69;5187368;28;20083;-74
2024/01/11 01:22:30;;;;;;;50.78;17.23;;;;;;;-7.07;89.76;102364.38;5186813;28;20169;-73
2024/01/11 01:25:00;;;;;;;51.28;17.33;;;;;;;-6.98;89.99;102356.47;5187968;28;20513;-73
2024/01/11 01:27:30;;;;;;;50.03;17.38;;;;;;;-6.98;89.23;102359.00;5181188;28;20029;-73
2024/01/11 01:30:01;;;;;;;46.83;16.63;;;;;;;-7.09;89.52;102365.97;5182058;28;20125;-73
2024/01/11 01:32:31;;;;;;;46.95;16.98;;;;;;;-7.09;90.25;102367.63;5187027;28;20494;-73
2024/01/11 01:35:01;;;;;;;47.53;16.35;;;;;;;-7.13;89.51;102373.31;5191728;28;20034;-73
2024/01/11 01:37:31;;;;;;;54.55;17.35;;;;;;;-7.15;89.87;102363.03;5192755;28;20025;-73
2024/01/11 01:40:03;;;;;;;50.58;16.95;;;;;;;-6.98;90.84;102362.44;5188372;28;20173;-73
2024/01/11 01:42:33;;;;;;;52.72;17.02;;;;;;;-6.82;88.97;102375.31;5187277;28;20021;-74
2024/01/11 01:45:04;;;;;;;52.97;17.17;;;;;;;-6.99;88.31;102370.84;5182587;28;20033;-74
2024/01/11 01:47:35;;;;;;;42.63;16.08;;;;;;;-7.05;89.29;102360.31;5179956;28;20030;-74
2024/01/11 01:50:07;;;;;;;44.78;16.35;;;;;;;-7.18;89.10;102361.97;5186152;28;20125;-73
2024/01/11 01:52:41;;;;;;;46.47;15.95;;;;;;;-7.07;89.51;102377.09;5187862;28;20128;-73
2024/01/11 01:55:14;;;;;;;44.38;16.27;;;;;;;-6.94;89.38;102374.53;5184612;28;20511;-73
2024/01/11 01:57:46;;;;;;;45.60;16.73;;;;;;;-7.12;88.15;102368.31;5185832;28;20039;-73
2024/01/11 02:00:17;;;;;;;50.70;18.00;;;;;;;-7.02;89.31;102374.84;5188443;28;20046;-73
2024/01/11 02:02:52;;;;;;;45.45;16.23;;;;;;;-7.06;89.86;102361.09;5185936;28;20077;-73
2024/01/11 02:05:23;;;;;;;45.92;16.83;;;;;;;-6.98;89.34;102366.63;5186349;28;20038;-73
2024/01/11 02:07:55;;;;;;;43.45;15.27;;;;;;;-7.18;88.43;102360.31;5183593;28;20026;-74
2024/01/11 02:10:26;;;;;;;44.60;16.33;;;;;;;-7.29;88.99;102362.06;5183733;28;20416;-74
2024/01/11 02:12:57;;;;;;;45.20;16.00;;;;;;;-7.09;90.10;102360.88;5182642;28;20065;-74
2024/01/11 02:15:27;;;;;;;45.60;16.70;;;;;;;-7.05;89.86;102357.78;5180681;28;20032;-73
2024/01/11 02:17:57;;;;;;;48.55;16.15;;;;;;;-7.04;87.26;102340.84;5183946;28;20026;-73
2024/01/11 02:20:28;;;;;;;41.38;15.75;;;;;;;-7.33;87.97;102355.06;5190860;28;20030;-73
2024/01/11 02:23:03;;;;;;;45.20;15.85;;;;;;;-7.29;89.08;102365.50;5180705;28;20025;-72
2024/01/11 02:25:34;;;;;;;47.85;16.67;;;;;;;-7.27;88.51;102365.56;5182923;28;20183;-73
2024/01/11 02:28:04;;;;;;;42.17;15.18;;;;;;;-7.33;89.64;102372.81;5186741;28;20113;-73
2024/01/11 02:30:34;;;;;;;46.58;16.30;;;;;;;-7.00;89.12;102348.78;5182707;28;20046;-73
2024/01/11 02:33:05;;;;;;;44.00;15.25;;;;;;;-7.21;88.27;102351.63;5184738;28;20072;-73
2024/01/11 02:35:38;;;;;;;48.47;15.82;;;;;;;-7.36;88.25;102354.84;5187553;28;20025;-73
2024/01/11 02:38:08;;;;;;;41.53;15.30;;;;;;;-7.30;89.68;102356.13;5190106;28;20030;-74
2024/01/11 02:40:40;;;;;;;46.35;16.17;;;;;;;-7.00;88.97;102337.72;5189105;28;20438;-73
2024/01/11 02:43:10;;;;;;;48.05;16.38;;;;;;;-7.20;86.73;102344.91;5187701;28;20029;-73
2024/01/11 02:45:40;;;;;;;44.90;15.77;;;;;;;-7.29;87.80;102337.56;5188042;28;20475;-74
2024/01/11 02:48:11;;;;;;;46.90;15.18;;;;;;;-7.32;88.35;102331.41;5204207;28;20038;-74
2024/01/11 02:50:41;;;;;;;41.00;15.60;;;;;;;-7.41;89.59;102328.28;5186508;28;20036;-74
2024/01/11 02:53:11;;;;;;;44.58;15.27;;;;;;;-7.49;89.73;102339.63;5189287;28;20096;-73
2024/01/11 02:55:42;;;;;;;45.22;16.92;;;;;;;-7.38;90.94;102336.97;5188613;28;20117;-73
2024/01/11 02:58:12;;;;;;;47.97;16.63;;;;;;;-7.09;91.27;102339.69;5193141;28;20374;-73
2024/01/11 03:00:42;;;;;;;45.53;15.90;;;;;;;-7.27;89.97;102337.66;5189939;28;20121;-73
2024/01/11 03:03:14;;;;;;;45.90;16.48;;;;;;;-7.23;90.32;102321.81;5189364;28;20040;-73
2024/01/11 03:05:44;;;;;;;44.70;15.32;;;;;;;-7.06;89.92;102320.47;5190288;28;20616;-74
2024/01/11 03:08:14;;;;;;;45.35;15.75;;;;;;;-7.33;88.90;102339.81;5190708;28;20025;-74
2024/01/11 03:10:44;;;;;;;44.10;14.85;;;;;;;-7.25;90.29;102341.16;5188789;28;20544;-74
2024/01/11 03:13:15;;;;;;;41.17;15.02;;;;;;;-7.22;90.39;102346.47;5182360;28;20030;-74
2024/01/11 03:15:45;;;;;;;42.85;15.18;;;;;;;-7.25;90.53;102343.69;5188121;28;20021;-74
2024/01/11 03:18:15;;;;;;;48.80;17.42;;;;;;;-7.32;90.47;102339.03;5187559;28;20026;-73
2024/01/11 03:20:46;;;;;;;45.08;16.35;;;;;;;-7.09;90.92;102332.94;5189119;28;20057;-73
2024/01/11 03:23:16;;;;;;;46.85;16.23;;;;;;;-7.24;89.47;102332.75;5192018;28;20091;-73
2024/01/11 03:25:46;;;;;;;46.15;16.60;;;;;;;-7.14;89.73;102334.31;5188835;28;20045;-73
2024/01/11 03:28:17;;;;;;;49.28;17.95;;;;;;;-7.19;89.02;102331.41;5189154;28;20030;-73
2024/01/11 03:30:48;;;;;;;52.75;18.10;;;;;;;-7.38;89.73;102331.91;5184394;28;20033;-74
2024/01/11 03:33:18;;;;;;;48.30;17.38;;;;;;;-7.34;90.71;102332.97;5189694;28;20494;-73
2024/01/11 03:35:48;;;;;;;52.08;18.42;;;;;;;-7.33;90.75;102343.22;5189491;28;20446;-74
2024/01/11 03:38:19;;;;;;;53.63;18.58;;;;;;;-7.21;91.01;102340.59;5190947;28;20112;-73
2024/01/11 03:40:49;;;;;;;60.72;20.00;;;;;;;-7.09;89.96;102335.47;5187099;28;20117;-73
2024/01/11 03:43:19;;;;;;;58.08;21.42;;;;;;;-7.19;89.76;102341.56;5190332;28;20107;-73
2024/01/11 03:45:50;;;;;;;54.53;19.95;;;;;;;-7.21;90.29;102353.28;5189730;28;20030;-73
2024/01/11 03:48:20;;;;;;;61.85;19.13;;;;;;;-7.29;89.77;102357.00;5189667;28;20251;-73
2024/01/11 03:50:51;;;;;;;58.28;20.00;;;;;;;-7.18;89.83;102361.09;5187385;28;20038;-74
2024/01/11 03:53:21;;;;;;;56.45;19.27;;;;;;;-7.36;90.42;102367.56;5191523;28;20044;-73
2024/01/11 03:55:51;;;;;;;47.72;17.48;;;;;;;-7.26;91.43;102360.63;5188369;28;20112;-73
2024/01/11 03:58:22;;;;;;;51.65;18.73;;;;;;;-7.32;91.62;102361.88;5193621;28;20422;-73
2024/01/11 04:00:52;;;;;;;43.88;16.88;;;;;;;-7.29;91.24;102349.38;5185378;28;20123;-73
2024/01/11 04:03:23;;;;;;;48.03;17.92;;;;;;;-7.25;91.04;102352.22;5189283;28;20120;-73
2024/01/11 04:05:53;;;;;;;55.75;18.50;;;;;;;-7.26;90.96;102357.19;5189523;28;20037;-73
2024/01/11 04:08:24;;;;;;;48.00;17.25;;;;;;;-7.25;90.43;102354.75;5182365;28;20633;-74
2024/01/11 04:10:54;;;;;;;44.22;17.05;;;;;;;-7.23;91.23;102345.56;5187318;28;20037;-74
2024/01/11 04:13:24;;;;;;;50.50;17.65;;;;;;;-7.30;90.10;102357.78;5189239;28;20040;-73
2024/01/11 04:15:55;;;;;;;54.60;18.17;;;;;;;-7.31;90.53;102356.91;5185736;28;20173;-73
2024/01/11 04:18:25;;;;;;;47.88;16.90;;;;;;;-7.41;89.39;102348.59;5188676;28;20044;-73
2024/01/11 04:20:55;;;;;;;52.17;17.38;;;;;;;-7.28;90.53;102346.06;5183670;28;20510;-74
2024/01/11 04:23:26;;;;;;;47.17;17.05;;;;;;;-7.43;90.20;102342.53;5184766;28;20076;-74
2024/01/11 04:25:56;;;;;;;52.78;17.40;;;;;;;-7.51;90.73;102339.50;5186938;28;20033;-73
2024/01/11 04:28:26;;;;;;;54.92;18.27;;;;;;;-7.65;90.09;102347.91;5191750;28;20550;-73
2024/01/11 04:30:57;;;;;;;57.55;19.25;;;;;;;-7.41;90.80;102341.88;5188673;28;20025;-74
2024/01/11 04:33:27;;;;;;;78.80;25.63;;;;;;;-7.29;90.48;102334.16;5182510;28;20025;-73
2024/01/11 04:35:57;;;;;;;67.28;22.02;;;;;;;-7.18;89.66;102336.56;5185557;28;20033;-73
2024/01/11 04:38:27;;;;;;;57.33;20.10;;;;;;;-7.39;89.27;102350.44;5186250;28;20494;-73
2024/01/11 04:40:58;;;;;;;74.13;24.25;;;;;;;-7.48;89.96;102347.34;5185980;28;20025;-74
2024/01/11 04:43:28;;;;;;;63.88;21.27;;;;;;;-7.36;90.39;102344.72;5185494;28;20068;-74
2024/01/11 04:45:58;;;;;;;46.92;16.85;;;;;;;-7.24;89.91;102346.34;5189023;28;20034;-74
2024/01/11 04:48:28;;;;;;;45.95;16.77;;;;;;;-7.33;89.30;102355.06;5189895;28;20022;-74
2024/01/11 04:50:59;;;;;;;55.65;18.70;;;;;;;-7.45;89.10;102354.25;5185066;28;20091;-74
2024/01/11 04:53:29;;;;;;;57.40;18.90;;;;;;;-7.31;90.18;102359.47;5188159;28;20029;-73
2024/01/11 04:55:59;;;;;;;60.50;19.70;;;;;;;-7.21;89.25;102366.84;5184937;28;20033;-73
2024/01/11 04:58:29;;;;;;;61.63;20.95;;;;;;;-7.36;89.31;102365.88;5188365;28;20537;-73
2024/01/11 05:01:00;;;;;;;54.25;20.10;;;;;;;-7.35;89.72;102371.84;5183089;28;20080;-73
2024/01/11 05:03:31;;;;;;;54.28;18.63;;;;;;;-7.42;89.10;102373.09;5186689;28;20471;-74
2024/01/11 05:06:01;;;;;;;55.70;18.17;;;;;;;-7.24;90.77;102361.59;5186983;28;20526;-74
2024/01/11 05:08:32;;;;;;;51.40;18.38;;;;;;;-7.35;89.32;102356.63;5187518;28;20021;-73
2024/01/11 05:11:02;;;;;;;51.70;17.58;;;;;;;-7.41;89.44;102368.91;5182025;28;20040;-73
2024/01/11 05:13:32;;;;;;;53.22;17.95;;;;;;;-7.46;90.55;102375.34;5189414;28;20033;-74
2024/01/11 05:16:03;;;;;;;48.35;16.55;;;;;;;-7.35;90.48;102366.78;5187932;28;20041;-73
2024/01/11 05:18:33;;;;;;;52.50;18.00;;;;;;;-7.46;90.21;102368.63;5188797;28;20124;-74
2024/01/11 05:21:04;;;;;;;49.00;17.63;;;;;;;-7.49;90.99;102378.56;5186250;28;20060;-74
2024/01/11 05:23:34;;;;;;;52.40;17.55;;;;;;;-7.48;91.04;102379.44;5185697;28;20034;-73
2024/01/11 05:26:05;;;;;;;47.85;16.30;;;;;;;-7.69;90.13;102383.13;5189778;28;20030;-74
2024/01/11 05:28:38;;;;;;;53.65;16.77;;;;;;;-7.49;91.43;102376.00;5190060;28;20403;-73
2024/01/11 05:31:13;;;;;;;45.45;16.65;;;;;;;-7.48;91.74;102374.38;5186995;28;20030;-73
2024/01/11 05:33:43;;;;;;;46.55;16.33;;;;;;;-7.62;90.78;102380.22;5187936;28;20057;-74
2024/01/11 05:36:14;;;;;;;47.15;17.42;;;;;;;-7.37;91.43;102378.50;5186092;28;20517;-73
2024/01/11 05:38:45;;;;;;;49.70;17.45;;;;;;;-7.41;90.59;102358.75;5185247;28;20113;-74
2024/01/11 05:41:15;;;;;;;46.85;17.83;;;;;;;-7.49;90.81;102358.25;5184370;28;20033;-74
2024/01/11 05:43:45;;;;;;;48.63;17.02;;;;;;;-7.34;90.57;102350.75;5188665;28;20098;-73
2024/01/11 05:46:16;;;;;;;50.00;17.83;;;;;;;-7.12;90.69;102347.13;5188118;28;20022;-73
2024/01/11 05:48:46;;;;;;;50.58;17.73;;;;;;;-7.38;88.71;102346.28;5188475;28;20041;-74
2024/01/11 05:51:16;;;;;;;52.75;18.58;;;;;;;-7.48;89.70;102372.72;5184416;28;20092;-73
2024/01/11 05:53:47;;;;;;;51.60;18.13;;;;;;;-7.31;90.63;102381.41;5184565;28;20038;-74
2024/01/11 05:56:20;;;;;;;50.08;18.30;;;;;;;-7.20;90.61;102371.16;5184384;28;20029;-73
2024/01/11 05:58:50;;;;;;;52.33;18.33;;;;;;;-7.06;90.98;102356.00;5188354;28;20667;-74
2024/01/11 06:01:21;;;;;;;51.70;19.33;;;;;;;-7.08;89.86;102344.84;5181672;28;20060;-72
2024/01/11 06:03:51;;;;;;;51.08;18.48;;;;;;;-7.18;89.67;102335.72;5186095;28;20172;-73
2024/01/11 06:06:21;;;;;;;46.53;17.15;;;;;;;-7.16;89.59;102346.06;5185621;28;20048;-74
2024/01/11 06:08:52;;;;;;;52.88;18.25;;;;;;;-7.24;91.12;102365.78;5184203;28;20037;-73
2024/01/11 06:11:22;;;;;;;46.78;18.33;;;;;;;-7.27;91.96;102365.56;5185591;28;20068;-73
2024/01/11 06:13:52;;;;;;;53.13;17.83;;;;;;;-7.16;91.72;102361.28;5187980;28;20052;-74
2024/01/11 06:16:23;;;;;;;52.13;17.80;;;;;;;-6.80;91.15;102329.69;5187190;28;20116;-73
2024/01/11 06:18:53;;;;;;;47.55;17.65;;;;;;;-7.11;88.83;102309.13;5189366;28;20026;-73
2024/01/11 06:21:23;;;;;;;51.17;17.92;;;;;;;-6.93;90.11;102309.38;5188066;28;20114;-73
2024/01/11 06:23:54;;;;;;;59.20;19.67;;;;;;;-7.06;90.75;102338.25;5183255;28;20052;-73
2024/01/11 06:26:24;;;;;;;50.58;17.95;;;;;;;-7.10;91.69;102364.19;5190779;28;20533;-74
2024/01/11 06:28:54;;;;;;;52.15;18.08;;;;;;;-6.95;92.39;102338.91;5188202;28;20510;-73
2024/01/11 06:31:24;;;;;;;45.58;18.40;;;;;;;-7.04;91.02;102326.50;5187678;28;20032;-73
2024/01/11 06:33:55;;;;;;;51.13;17.67;;;;;;;-7.01;91.67;102336.84;5189843;28;20039;-74
2024/01/11 06:36:25;;;;;;;49.88;18.00;;;;;;;-6.95;92.01;102328.75;5189667;28;20477;-73
2024/01/11 06:38:55;;;;;;;46.03;16.50;;;;;;;-7.05;91.24;102337.47;5186476;28;20042;-73
2024/01/11 06:41:26;;;;;;;45.92;17.02;;;;;;;-7.00;91.91;102325.00;5189110;28;20044;-73
2024/01/11 06:43:56;;;;;;;45.25;15.05;;;;;;;-6.97;91.67;102326.09;5185089;28;20060;-74
2024/01/11 06:46:26;;;;;;;45.67;15.40;;;;;;;-6.92;91.14;102324.69;5186105;28;20465;-73
2024/01/11 06:48:57;;;;;;;42.13;14.73;;;;;;;-7.00;91.25;102333.53;5178386;28;20041;-73
2024/01/11 06:51:27;;;;;;;39.22;15.20;;;;;;;-6.98;92.75;102342.13;5182914;28;20032;-74
2024/01/11 06:53:59;;;;;;;42.20;14.95;;;;;;;-6.99;92.50;102345.44;5182106;28;20376;-72
2024/01/11 06:56:30;;;;;;;42.35;15.10;;;;;;;-6.97;92.96;102345.56;5175189;28;20038;-72
2024/01/11 06:59:00;;;;;;;42.50;15.75;;;;;;;-6.93;92.83;102350.03;5177251;28;20486;-74
2024/01/11 07:01:30;;;;;;;42.28;14.23;;;;;;;-6.97;92.94;102355.72;5182823;28;20034;-74
2024/01/11 07:04:01;;;;;;;37.83;13.63;;;;;;;-6.83;92.52;102360.84;5184274;28;20061;-73
2024/01/11 07:06:31;;;;;;;42.47;13.90;;;;;;;-7.09;91.52;102353.25;5199107;28;20495;-73
2024/01/11 07:09:01;;;;;;;40.20;14.55;;;;;;;-7.07;92.69;102355.91;5183423;28;20395;-73
2024/01/11 07:11:32;;;;;;;40.88;14.75;;;;;;;-6.81;92.15;102354.19;5182594;28;20049;-73
2024/01/11 07:14:04;;;;;;;43.10;15.43;;;;;;;-6.91;92.07;102364.56;5183874;28;20084;-74
2024/01/11 07:16:35;;;;;;;43.80;15.68;;;;;;;-6.75;91.69;102369.81;5186530;28;20026;-72
2024/01/11 07:19:06;;;;;;;48.45;16.35;;;;;;;-6.63;91.30;102388.38;5179620;28;20096;-74
2024/01/11 07:21:36;;;;;;;40.22;14.25;;;;;;;-6.79;90.51;102378.03;5181958;28;20029;-72
2024/01/11 07:24:06;;;;;;;45.95;15.20;;;;;;;-6.74;91.57;102381.72;5181062;28;20065;-73
2024/01/11 07:26:37;;;;;;;37.30;14.77;;;;;;;-6.92;91.34;102387.34;5201792;28;20660;-74
2024/01/11 07:29:07;;;;;;;40.67;14.93;;;;;;;-6.70;90.83;102396.41;5189581;28;20571;-74
2024/01/11 07:31:37;;;;;;;41.85;14.20;;;;;;;-6.68;90.54;102406.66;5184503;28;20129;-73
2024/01/11 07:34:08;;;;;;;44.15;15.93;;;;;;;-6.52;91.81;102402.63;5186034;28;20038;-73
2024/01/11 07:36:38;;;;;;;39.58;15.25;;;;;;;-6.54;90.67;102399.09;5187491;28;20367;-74
2024/01/11 07:39:08;;;;;;;40.67;15.52;;;;;;;-6.64;90.55;102394.22;5185587;28;20049;-73
2024/01/11 07:41:39;;;;;;;44.25;16.98;;;;;;;-6.66;90.96;102393.25;5189041;28;20057;-73
2024/01/11 07:44:09;;;;;;;44.78;16.05;;;;;;;-6.49;91.84;102387.56;5185220;28;20030;-74
2024/01/11 07:46:40;;;;;;;47.35;17.15;;;;;;;-6.35;92.36;102401.09;5188679;28;20402;-74
2024/01/11 07:49:10;;;;;;;39.63;15.80;;;;;;;-6.42;91.96;102396.44;5189821;28;20037;-73
2024/01/11 07:51:41;;;;;;;34.30;14.07;;;;;;;-6.40;91.82;102387.22;5187714;28;20036;-74
2024/01/11 07:54:12;;;;;;;45.70;15.35;;;;;;;-6.32;91.41;102380.91;5187594;28;20030;-74
2024/01/11 07:56:42;;;;;;;44.95;16.77;;;;;;;-6.39;90.64;102382.22;5187676;28;20021;-73
2024/01/11 07:59:14;;;;;;;38.28;15.73;;;;;;;-6.28;90.95;102378.66;5189388;28;20458;-74
2024/01/11 08:01:45;;;;;;;44.33;15.52;;;;;;;-5.92;91.08;102375.75;5186537;28;20026;-74
2024/01/11 08:04:15;;;;;;;38.45;15.00;;;;;;;-5.47;90.35;102372.41;5184166;28;20391;-73
2024/01/11 08:06:45;;;;;;;36.75;14.98;;;;;;;-5.01;88.60;102368.28;5188096;28;20022;-74
2024/01/11 08:09:16;;;;;;;38.22;14.68;;;;;;;-4.86;85.44;102374.22;5182016;28;20728;-73
2024/01/11 08:11:48;;;;;;;34.65;13.43;;;;;;;-3.92;85.14;102369.88;5188310;28;20025;-74
2024/01/11 08:14:18;;;;;;;38.50;14.07;;;;;;;-3.54;81.66;102360.78;5185405;28;20614;-74
2024/01/11 08:16:48;;;;;;;33.38;13.45;;;;;;;-2.84;80.27;102365.91;5186077;28;20045;-74
2024/01/11 08:19:19;;;;;;;33.95;13.25;;;;;;;-2.51;77.33;102362.31;5186409;28;20083;-74
2024/01/11 08:21:49;;;;;;;32.25;13.35;;;;;;;-1.95;76.97;102355.44;5184228;28;20703;-74
2024/01/11 08:24:19;;;;;;;34.33;14.32;;;;;;;-2.30;74.78;102361.56;5186866;28;20033;-73
2024/01/11 08:26:50;;;;;;;33.67;14.23;;;;;;;-3.00;75.64;102364.28;5185560;28;20491;-74
2024/01/11 08:29:22;;;;;;;36.40;13.95;;;;;;;-3.35;75.96;102364.28;5187414;28;20095;-74
2024/01/11 08:31:54;;;;;;;31.85;12.73;;;;;;;-2.68;78.18;102361.53;5181773;28;20081;-74
2024/01/11 08:34:26;;;;;;;31.83;13.85;;;;;;;-2.86;76.77;102368.38;5186200;28;20433;-74
2024/01/11 08:36:56;;;;;;;35.92;13.73;;;;;;;-1.71;76.29;102357.34;5184749;28;20359;-74
2024/01/11 08:39:27;;;;;;;32.08;13.05;;;;;;;-1.96;73.71;102372.47;5185995;28;20104;-74
2024/01/11 08:41:57;;;;;;;31.25;13.15;;;;;;;-1.09;72.76;102373.63;5185389;28;20041;-74
2024/01/11 08:44:27;;;;;;;33.08;12.98;;;;;;;-0.81;72.00;102371.31;5186254;28;20104;-74
2024/01/11 08:46:59;;;;;;;36.15;13.82;;;;;;;-0.93;70.08;102374.28;5185962;28;20598;-74
2024/01/11 08:49:29;;;;;;;29.73;12.10;;;;;;;-1.94;70.32;102370.88;5185010;28;20534;-74
2024/01/11 08:51:59;;;;;;;29.85;13.13;;;;;;;-2.51;73.47;102385.34;5185784;28;20037;-74
2024/01/11 08:54:32;;;;;;;34.95;12.60;;;;;;;-3.03;75.47;102386.31;5186391;28;20095;-74
2024/01/11 08:57:03;;;;;;;31.83;13.02;;;;;;;-3.50;78.07;102388.22;5187923;28;20034;-74
2024/01/11 08:59:33;;;;;;;33.88;13.07;;;;;;;-3.96;79.54;102388.41;5187119;28;20557;-74
2024/01/11 09:02:03;;;;;;;38.08;14.05;;;;;;;-3.76;81.83;102378.38;5188256;28;20026;-73
2024/01/11 09:04:34;;;;;;;35.72;12.98;;;;;;;-4.02;82.06;102368.53;5184323;28;20030;-73
2024/01/11 09:07:04;;;;;;;34.28;13.07;;;;;;;-4.08;83.45;102365.69;5185427;28;20137;-73
2024/01/11 09:09:35;;;;;;;36.97;13.07;;;;;;;-4.04;84.00;102372.69;5185932;28;20383;-74
2024/01/11 09:12:06;;;;;;;33.33;12.20;;;;;;;-4.02;85.16;102367.66;5185714;28;20394;-74
2024/01/11 09:14:37;;;;;;;36.08;13.98;;;;;;;-3.99;84.87;102367.84;5190211;28;20505;-74
2024/01/11 09:17:08;;;;;;;35.13;12.43;;;;;;;-3.95;85.08;102373.16;5188668;28;20049;-74
2024/01/11 09:19:39;;;;;;;36.13;12.90;;;;;;;-4.12;85.96;102385.88;5185062;28;20029;-74
2024/01/11 09:22:10;;;;;;;30.33;12.07;;;;;;;-3.86;86.08;102393.16;5186122;28;20520;-74
2024/01/11 09:24:40;;;;;;;34.60;12.90;;;;;;;-3.75;85.97;102392.03;5185539;28;20063;-74
2024/01/11 09:27:10;;;;;;;35.63;13.43;;;;;;;-3.74;85.22;102401.44;5185773;28;20483;-73
2024/01/11 09:29:45;;;;;;;33.80;12.65;;;;;;;-3.76;84.60;102403.06;5189881;28;20083;-74
2024/01/11 09:32:15;;;;;;;36.92;13.15;;;;;;;-3.80;85.31;102388.38;5187041;28;20033;-74
2024/01/11 09:34:45;;;;;;;38.25;13.25;;;;;;;-3.74;85.28;102387.03;5185353;28;20025;-74
2024/01/11 09:37:17;;;;;;;34.85;13.43;;;;;;;-3.68;84.99;102391.53;5184453;28;20053;-73
2024/01/11 09:39:47;;;;;;;37.15;13.35;;;;;;;-3.72;84.92;102395.63;5186397;28;20503;-74
2024/01/11 09:42:18;;;;;;;37.03;13.82;;;;;;;-3.59;85.42;102380.09;5187534;28;20455;-73
2024/01/11 09:44:48;;;;;;;39.42;15.18;;;;;;;-3.62;85.64;102383.41;5375905;22;20009;-76
2024/01/11 09:47:19;;;;;;;60.88;21.52;;;;;;;-3.57;84.75;102371.72;5222982;28;20559;-76
2024/01/11 09:49:51;;;;;;;38.50;13.75;;;;;;;-3.48;85.36;102369.63;5231209;28;20116;-76
2024/01/11 09:52:25;;;;;;;33.90;13.60;;;;;;;-3.73;84.67;102363.25;5228249;28;20485;-74
2024/01/11 09:54:55;;;;;;;36.08;13.15;;;;;;;-3.50;86.31;102363.53;5227728;28;20504;-74
2024/01/11 09:57:30;;;;;;;32.35;12.57;;;;;;;-3.47;85.18;102361.16;5226369;28;20113;-75
2024/01/11 10:00:07;;;;;;;34.58;13.07;;;;;;;-3.58;85.08;102344.41;5223912;28;20028;-77
2024/01/11 10:02:38;;;;;;;30.80;12.00;;;;;;;-3.24;85.79;102339.25;5225823;28;20071;-76
2024/01/11 10:05:08;;;;;;;30.27;12.25;;;;;;;-3.45;84.96;102336.56;5227612;28;20052;-76
2024/01/11 10:07:39;;;;;;;31.17;11.45;;;;;;;-3.16;84.69;102336.25;5226765;28;20501;-77
2024/01/11 10:10:09;;;;;;;34.13;12.35;;;;;;;-3.20;84.06;102331.81;5227819;28;20057;-77
2024/01/11 10:12:40;;;;;;;29.05;11.70;;;;;;;-3.06;84.44;102335.03;5227919;28;20112;-76
2024/01/11 10:15:11;;;;;;;27.92;11.45;;;;;;;-3.17;83.41;102341.31;5230098;28;20029;-77
2024/01/11 10:17:43;;;;;;;30.40;11.52;;;;;;;-2.95;83.48;102329.59;5227746;28;20032;-77
2024/01/11 10:20:15;;;;;;;32.90;12.55;;;;;;;-2.96;83.45;102325.28;5226265;28;20024;-77
2024/01/11 10:22:46;;;;;;;29.00;12.13;;;;;;;-2.92;83.26;102336.53;5225582;28;20390;-77
2024/01/11 10:25:17;;;;;;;30.48;11.30;;;;;;;-2.93;84.31;102339.88;5228531;28;20086;-76
2024/01/11 10:27:47;;;;;;;25.65;10.40;;;;;;;-3.12;84.13;102340.72;5227822;28;20056;-77
2024/01/11 10:30:20;;;;;;;28.30;11.02;;;;;;;-2.93;85.67;102351.00;5221189;28;20056;-76
2024/01/11 10:32:50;;;;;;;29.63;12.85;;;;;;;-3.08;86.19;102352.84;5224044;28;20123;-77
2024/01/11 10:35:21;;;;;;;26.10;10.93;;;;;;;-3.06;86.52;102358.91;5221380;28;20130;-76
2024/01/11 10:37:53;;;;;;;23.58;9.77;;;;;;;-3.06;88.06;102364.00;5215265;28;20036;-76
2024/01/11 10:40:25;;;;;;;28.90;10.88;;;;;;;-3.05;89.12;102360.66;5219522;28;20025;-77
2024/01/11 10:42:59;;;;;;;25.27;10.02;;;;;;;-3.09;90.46;102374.09;5217606;28;20049;-76
2024/01/11 10:45:38;;;;;;;21.52;9.30;;;;;;;-3.22;90.68;102381.13;5216928;28;20175;-76
2024/01/11 10:48:14;;;;;;;24.60;9.88;;;;;;;-3.26;92.24;102374.97;5218744;28;20037;-77
2024/01/11 10:50:47;;;;;;;24.45;9.20;;;;;;;-3.43;93.53;102367.28;5219254;28;20013;-76
2024/01/11 10:53:20;;;;;;;24.17;9.38;;;;;;;-3.39;94.95;102369.19;5218839;28;20077;-76
2024/01/11 10:55:50;;;;;;;26.67;9.25;;;;;;;-3.26;95.92;102381.75;5224727;28;20027;-76
2024/01/11 10:58:22;;;;;;;25.65;9.90;;;;;;;-3.15;96.81;102363.59;5222465;28;20032;-76
2024/01/11 11:00:57;;;;;;;26.45;10.20;;;;;;;-3.14;96.67;102361.91;5233626;28;20017;-77
2024/01/11 11:03:28;;;;;;;;;;;;;;;-3.06;97.37;102364.00;5224645;28;20029;-76
2024/01/11 11:06:00;;;;;;;27.02;10.90;;;;;;;-3.01;97.46;102365.09;5226495;28;19916;-77
2024/01/11 11:08:31;;;;;;;24.83;9.35;;;;;;;-2.81;97.71;102372.03;5231493;28;20064;-77
2024/01/11 11:11:05;;;;;;;30.20;11.48;;;;;;;-2.82;95.58;102371.97;5225861;28;20462;-77
2024/01/11 11:13:35;;;;;;;27.90;10.85;;;;;;;-2.59;95.86;102354.31;5228075;28;20201;-77
2024/01/11 11:16:06;;;;;;;27.50;11.10;;;;;;;-2.66;95.21;102352.25;5229957;28;20066;-76
2024/01/11 11:18:38;;;;;;;28.45;10.07;;;;;;;-2.64;95.30;102357.44;5228563;28;20055;-77
2024/01/11 11:21:11;;;;;;;26.75;10.07;;;;;;;-2.58;95.28;102345.81;5224767;28;20033;-77
2024/01/11 11:23:42;;;;;;;27.48;9.32;;;;;;;-2.47;95.12;102323.25;5235038;28;20103;-77
2024/01/11 11:26:19;;;;;;;24.02;9.75;;;;;;;-2.42;95.29;102314.97;5230914;28;20033;-77